Time;durP1;ratioP1;P1;durP2;ratioP2;P2;SDS_P1;SDS_P2;PMS_P1;PMS_P2;Temp;Humidity;BMP_temperature;BMP_pressure;BME280_temperature;BME280_humidity;BME280_pressure;Samples;Min_cycle;Max_cycle;Signal;HPM_P1;HPM_P2
2024/04/05 00:01:22;;;;;;;1.95;1.00;;;19.40;61.10;;;;;;5040025;28;20120;-68
2024/04/05 00:03:48;;;;;;;2.63;1.10;;;19.40;61.10;;;;;;5033968;28;20056;-67
2024/04/05 00:06:13;;;;;;;2.00;1.10;;;19.40;61.10;;;;;;5040456;28;20066;-68
2024/04/05 00:08:39;;;;;;;1.48;0.88;;;19.40;61.10;;;;;;5038736;28;20025;-68
2024/04/05 00:11:05;;;;;;;2.08;1.05;;;19.40;61.10;;;;;;5041562;28;20132;-67
2024/04/05 00:13:30;;;;;;;1.35;0.80;;;19.40;61.20;;;;;;5036944;28;20494;-68
2024/04/05 00:15:56;;;;;;;1.42;0.80;;;19.40;61.10;;;;;;5040803;28;20082;-68
2024/04/05 00:18:22;;;;;;;1.00;0.63;;;19.40;61.10;;;;;;5041055;28;20048;-68
2024/04/05 00:20:48;;;;;;;1.20;0.70;;;19.40;61.80;;;;;;5037396;28;20035;-68
2024/04/05 00:23:14;;;;;;;2.25;1.27;;;19.40;61.10;;;;;;5042881;28;20039;-67
2024/04/05 00:25:42;;;;;;;1.88;1.15;;;19.40;61.10;;;;;;5042956;28;20569;-68
2024/04/05 00:28:08;;;;;;;1.63;0.90;;;19.40;61.10;;;;;;5037983;28;20385;-67
2024/04/05 00:30:34;;;;;;;1.13;0.82;;;19.40;61.10;;;;;;5040801;28;20029;-68
2024/04/05 00:33:00;;;;;;;0.88;0.60;;;19.40;61.10;;;;;;5032583;28;20029;-67
2024/04/05 00:35:27;;;;;;;2.95;1.10;;;19.40;61.10;;;;;;5034884;28;20053;-67
2024/04/05 00:37:52;;;;;;;1.40;0.50;;;19.40;61.10;;;;;;5041829;28;20036;-68
2024/04/05 00:40:18;;;;;;;2.88;1.05;;;19.40;61.10;;;;;;5037636;28;20068;-68
2024/04/05 00:42:43;;;;;;;2.13;0.90;;;19.40;61.10;;;;;;5040469;28;20025;-68
2024/04/05 00:45:09;;;;;;;2.30;0.90;;;19.40;61.10;;;;;;5039662;28;20029;-67
2024/04/05 00:47:35;;;;;;;1.75;0.63;;;19.40;61.10;;;;;;5040672;28;20107;-68
2024/04/05 00:50:02;;;;;;;1.20;0.90;;;19.40;61.10;;;;;;5037172;28;20044;-68
2024/04/05 00:52:31;;;;;;;1.55;0.70;;;19.40;61.10;;;;;;5039824;28;20036;-68
2024/04/05 00:54:57;;;;;;;2.08;0.80;;;19.40;61.10;;;;;;5037882;28;20407;-68
2024/04/05 00:57:23;;;;;;;1.63;0.98;;;19.40;61.10;;;;;;5035273;28;20044;-64
2024/04/05 00:59:48;;;;;;;1.48;0.82;;;19.40;61.10;;;;;;5034644;28;20087;-67
2024/04/05 01:02:14;;;;;;;1.23;0.65;;;19.40;61.10;;;;;;5034916;28;20036;-68
2024/04/05 01:04:39;;;;;;;1.55;0.63;;;19.40;61.10;;;;;;5035034;28;20205;-67
2024/04/05 01:07:05;;;;;;;1.02;0.68;;;19.40;61.10;;;;;;5037164;28;20033;-68
2024/04/05 01:09:31;;;;;;;2.03;1.05;;;19.40;61.10;;;;;;5033743;28;20021;-67
2024/04/05 01:11:57;;;;;;;1.73;1.00;;;19.40;61.10;;;;;;5034835;28;20036;-69
2024/04/05 01:14:22;;;;;;;1.75;0.73;;;19.40;61.10;;;;;;5029152;28;20045;-66
2024/04/05 01:16:48;;;;;;;0.68;0.40;;;19.40;61.10;;;;;;5031532;28;20116;-68
2024/04/05 01:19:16;;;;;;;1.60;0.50;;;19.40;61.10;;;;;;5029387;28;20091;-67
2024/04/05 01:21:44;;;;;;;1.42;0.50;;;19.40;61.10;;;;;;5026500;28;20033;-68
2024/04/05 01:24:11;;;;;;;0.98;0.60;;;19.30;61.00;;;;;;5031772;28;20041;-64
2024/04/05 01:26:36;;;;;;;1.08;0.60;;;19.30;61.10;;;;;;5035931;28;20090;-66
2024/04/05 01:29:02;;;;;;;1.38;0.60;;;19.30;61.10;;;;;;5034304;28;20311;-67
2024/04/05 01:31:27;;;;;;;0.95;0.70;;;19.40;61.20;;;;;;5030301;28;20033;-65
2024/04/05 01:33:54;;;;;;;0.80;0.60;;;19.30;61.20;;;;;;5032049;28;20029;-68
2024/04/05 01:36:19;;;;;;;1.08;0.75;;;19.30;61.30;;;;;;5036878;28;20029;-65
2024/04/05 01:38:45;;;;;;;1.00;0.60;;;19.30;61.30;;;;;;5043262;28;20059;-67
2024/04/05 01:41:10;;;;;;;2.25;0.73;;;19.30;61.30;;;;;;5038681;28;20033;-67
2024/04/05 01:43:36;;;;;;;1.38;0.55;;;19.20;61.40;;;;;;5037588;28;20071;-70
2024/04/05 01:46:01;;;;;;;1.30;0.60;;;19.20;61.40;;;;;;5035358;28;22562;-69
2024/04/05 01:48:27;;;;;;;0.80;0.68;;;19.20;61.40;;;;;;5035108;28;20138;-65
2024/04/05 01:50:52;;;;;;;1.63;0.60;;;19.20;61.40;;;;;;5034804;28;20045;-68
2024/04/05 01:53:18;;;;;;;1.63;0.70;;;19.20;61.50;;;;;;5039342;28;20488;-69
2024/04/05 01:55:43;;;;;;;1.55;0.63;;;19.20;61.50;;;;;;5044779;28;20048;-69
2024/04/05 01:58:10;;;;;;;1.50;0.70;;;19.20;61.50;;;;;;5039293;28;20505;-68
2024/04/05 02:00:36;;;;;;;1.35;0.63;;;19.20;61.50;;;;;;5027862;28;20110;-69
2024/04/05 02:03:01;;;;;;;1.27;0.60;;;19.20;61.50;;;;;;5036399;28;20037;-67
2024/04/05 02:05:27;;;;;;;0.82;0.50;;;19.20;61.40;;;;;;5034659;28;20029;-68
2024/04/05 02:07:52;;;;;;;1.00;0.60;;;19.20;61.40;;;;;;5034172;28;20699;-69
2024/04/05 02:10:18;;;;;;;2.28;0.70;;;19.20;61.40;;;;;;5033531;28;20410;-69
2024/04/05 02:12:43;;;;;;;0.85;0.47;;;19.20;61.40;;;;;;5038424;28;20029;-69
2024/04/05 02:15:09;;;;;;;1.80;0.85;;;19.20;61.40;;;;;;5034587;28;20044;-68
2024/04/05 02:17:34;;;;;;;1.02;0.57;;;19.20;61.40;;;;;;5035762;28;20029;-68
2024/04/05 02:20:00;;;;;;;0.65;0.40;;;19.20;61.40;;;;;;5033227;28;20029;-69
2024/04/05 02:22:26;;;;;;;1.15;0.50;;;19.20;61.40;;;;;;5035085;28;20033;-68
2024/04/05 02:24:51;;;;;;;0.85;0.40;;;19.20;61.40;;;;;;5036045;28;20713;-68
2024/04/05 02:27:17;;;;;;;1.00;0.50;;;19.20;61.40;;;;;;5035540;28;20036;-69
2024/04/05 02:29:42;;;;;;;1.52;0.68;;;19.20;61.40;;;;;;5044257;28;20053;-68
2024/04/05 02:32:08;;;;;;;1.02;0.60;;;19.20;61.40;;;;;;5039861;28;20037;-68
2024/04/05 02:34:33;;;;;;;3.45;0.60;;;19.20;61.40;;;;;;5041220;28;20029;-68
2024/04/05 02:36:58;;;;;;;1.00;0.40;;;19.20;61.40;;;;;;5040727;28;20017;-68
2024/04/05 02:39:24;;;;;;;2.35;0.57;;;19.20;61.40;;;;;;5043367;28;20144;-67
2024/04/05 02:41:49;;;;;;;1.27;0.52;;;19.20;61.40;;;;;;5044632;28;20070;-68
2024/04/05 02:44:15;;;;;;;0.80;0.40;;;19.20;61.40;;;;;;5040038;28;20025;-68
2024/04/05 02:46:42;;;;;;;2.35;0.57;;;19.20;61.40;;;;;;5044956;28;20053;-69
2024/04/05 02:49:08;;;;;;;1.27;0.52;;;19.20;61.50;;;;;;5045045;28;20032;-68
2024/04/05 02:51:34;;;;;;;1.27;0.57;;;19.20;61.40;;;;;;5043769;28;20135;-67
2024/04/05 02:54:00;;;;;;;1.80;0.40;;;19.20;61.50;;;;;;5042315;28;20127;-69
2024/04/05 02:56:25;;;;;;;0.50;0.30;;;19.20;61.60;;;;;;5043083;28;20037;-68
2024/04/05 02:58:50;;;;;;;1.00;0.52;;;19.20;61.50;;;;;;5042074;28;20403;-68
2024/04/05 03:01:16;;;;;;;0.70;0.50;;;19.20;61.50;;;;;;5033449;28;20104;-68
2024/04/05 03:03:42;;;;;;;1.02;0.60;;;19.10;61.40;;;;;;5012153;28;20039;-68
2024/04/05 03:06:07;;;;;;;1.10;0.60;;;19.20;61.50;;;;;;5034579;28;20104;-67
2024/04/05 03:08:34;;;;;;;1.40;0.85;;;19.10;61.40;;;;;;5037569;28;20104;-68
2024/04/05 03:10:59;;;;;;;1.10;0.65;;;19.10;61.40;;;;;;5032950;28;20039;-68
2024/04/05 03:13:25;;;;;;;1.65;0.60;;;19.10;61.40;;;;;;5035467;28;20029;-68
2024/04/05 03:15:50;;;;;;;0.60;0.40;;;19.10;61.40;;;;;;5036760;28;20106;-68
2024/04/05 03:18:16;;;;;;;1.27;0.52;;;19.10;61.50;;;;;;5024641;28;20064;-67
2024/04/05 03:20:44;;;;;;;0.75;0.40;;;19.10;61.40;;;;;;5048283;28;20036;-68
2024/04/05 03:23:13;;;;;;;1.23;0.63;;;19.10;61.40;;;;;;5036118;28;20477;-67
2024/04/05 03:25:38;;;;;;;1.48;0.73;;;19.10;61.40;;;;;;5038125;28;20407;-68
2024/04/05 03:28:04;;;;;;;1.13;0.50;;;19.10;61.40;;;;;;5037977;28;20029;-67
2024/04/05 03:30:30;;;;;;;1.30;0.50;;;19.10;61.40;;;;;;5036227;28;21340;-69
2024/04/05 03:32:56;;;;;;;2.15;0.60;;;19.10;61.40;;;;;;5035309;28;20045;-68
2024/04/05 03:35:21;;;;;;;1.10;0.40;;;19.10;61.40;;;;;;5041547;28;20112;-69
2024/04/05 03:37:51;;;;;;;0.40;0.30;;;19.10;61.40;;;;;;5043005;28;20571;-67
2024/04/05 03:40:16;;;;;;;0.82;0.52;;;19.10;61.40;;;;;;5036828;28;20496;-68
2024/04/05 03:42:42;;;;;;;0.98;0.80;;;19.10;61.40;;;;;;5039956;28;20081;-69
2024/04/05 03:45:07;;;;;;;0.50;0.30;;;19.10;61.40;;;;;;5037557;28;20037;-66
2024/04/05 03:47:33;;;;;;;1.17;0.55;;;19.20;61.80;;;;;;5042641;28;20025;-68
2024/04/05 03:49:58;;;;;;;2.38;0.85;;;19.10;61.30;;;;;;5039525;28;20040;-67
2024/04/05 03:52:24;;;;;;;1.13;0.90;;;19.10;61.30;;;;;;5040735;28;20029;-69
2024/04/05 03:54:49;;;;;;;0.98;0.60;;;19.20;61.40;;;;;;5040511;28;20037;-68
2024/04/05 03:57:15;;;;;;;2.75;0.75;;;19.10;61.30;;;;;;5039085;28;20845;-68
2024/04/05 03:59:40;;;;;;;1.10;0.50;;;19.20;61.40;;;;;;5041168;28;20037;-68
2024/04/05 04:02:06;;;;;;;0.50;0.40;;;19.10;61.30;;;;;;5039506;28;20028;-69
2024/04/05 04:04:31;;;;;;;1.17;0.50;;;19.10;61.30;;;;;;5032908;28;20038;-69
2024/04/05 04:06:57;;;;;;;0.50;0.43;;;19.10;61.30;;;;;;5049586;28;20045;-68
2024/04/05 04:09:22;;;;;;;0.63;0.40;;;19.10;61.20;;;;;;5039991;28;20028;-67
2024/04/05 04:11:48;;;;;;;0.98;0.70;;;19.20;61.30;;;;;;5039172;28;20032;-68
2024/04/05 04:14:13;;;;;;;0.55;0.35;;;19.20;61.20;;;;;;5039291;28;20036;-65
2024/04/05 04:16:40;;;;;;;1.42;0.40;;;19.20;61.20;;;;;;5041962;28;20040;-69
2024/04/05 04:19:07;;;;;;;1.33;0.43;;;19.20;61.30;;;;;;5039798;28;20040;-68
2024/04/05 04:21:32;;;;;;;1.00;0.65;;;19.20;61.20;;;;;;5015069;28;20033;-68
2024/04/05 04:23:58;;;;;;;1.15;0.50;;;19.20;61.30;;;;;;5040189;28;20031;-68
2024/04/05 04:26:24;;;;;;;0.50;0.40;;;19.20;61.20;;;;;;5039243;28;20100;-69
2024/04/05 04:28:50;;;;;;;1.00;0.40;;;19.20;61.20;;;;;;5041717;28;20278;-67
2024/04/05 04:31:21;;;;;;;1.48;0.73;;;19.20;61.20;;;;;;5039540;28;20033;-68
2024/04/05 04:33:48;;;;;;;0.88;0.52;;;19.20;61.20;;;;;;5039536;28;20084;-68
2024/04/05 04:36:13;;;;;;;1.35;0.35;;;19.20;61.20;;;;;;5039824;28;20039;-67
2024/04/05 04:38:39;;;;;;;0.80;0.50;;;19.20;61.10;;;;;;5044571;28;20045;-65
2024/04/05 04:41:05;;;;;;;0.70;0.40;;;19.20;61.10;;;;;;5038062;28;20086;-68
2024/04/05 04:43:31;;;;;;;0.75;0.50;;;19.20;61.10;;;;;;5042257;28;20036;-68
2024/04/05 04:46:00;;;;;;;0.85;0.40;;;19.20;61.10;;;;;;5042683;28;20100;-68
2024/04/05 04:48:26;;;;;;;0.70;0.40;;;19.20;61.10;;;;;;5039118;28;20025;-68
2024/04/05 04:50:55;;;;;;;1.60;0.50;;;19.20;61.10;;;;;;5039697;28;20048;-69
2024/04/05 04:53:20;;;;;;;1.27;0.40;;;19.20;61.10;;;;;;5039937;28;20041;-68
2024/04/05 04:55:47;;;;;;;1.98;0.60;;;19.20;61.10;;;;;;5041956;28;20037;-64
2024/04/05 04:58:16;;;;;;;1.30;0.63;;;19.20;61.00;;;;;;5040601;28;20095;-68
2024/04/05 05:00:45;;;;;;;0.88;0.63;;;19.20;61.10;;;;;;5027138;28;20027;-68
2024/04/05 05:03:12;;;;;;;0.75;0.63;;;19.20;61.10;;;;;;5037478;28;20044;-68
2024/04/05 05:05:38;;;;;;;1.52;0.73;;;19.20;61.10;;;;;;5042888;28;20083;-68
2024/04/05 05:08:04;;;;;;;1.35;0.60;;;19.20;61.10;;;;;;5038358;28;20073;-69
2024/04/05 05:10:30;;;;;;;0.52;0.35;;;19.20;61.10;;;;;;5040128;28;20446;-68
2024/04/05 05:12:55;;;;;;;0.40;0.30;;;19.20;61.10;;;;;;5041851;28;20057;-70
2024/04/05 05:15:21;;;;;;;0.90;0.50;;;19.20;61.00;;;;;;5040297;28;20048;-69
2024/04/05 05:17:46;;;;;;;1.35;0.60;;;19.20;61.10;;;;;;5040827;28;20037;-71
2024/04/05 05:20:16;;;;;;;2.22;0.55;;;19.20;61.00;;;;;;5033111;28;20037;-65
2024/04/05 05:22:42;;;;;;;0.88;0.52;;;19.20;61.10;;;;;;5041394;28;20029;-71
2024/04/05 05:25:08;;;;;;;1.50;0.43;;;19.20;61.10;;;;;;5040761;28;20025;-71
2024/04/05 05:27:34;;;;;;;1.33;0.50;;;19.20;61.10;;;;;;5038461;28;20018;-68
2024/04/05 05:29:59;;;;;;;1.83;0.95;;;19.20;61.10;;;;;;5043995;28;20125;-68
2024/04/05 05:32:25;;;;;;;2.00;0.75;;;19.20;61.10;;;;;;5041970;28;20035;-70
2024/04/05 05:34:50;;;;;;;2.10;1.08;;;19.20;61.10;;;;;;5045610;28;20025;-70
2024/04/05 05:37:16;;;;;;;2.30;1.00;;;19.20;61.00;;;;;;5043225;28;20395;-69
2024/04/05 05:39:42;;;;;;;2.75;1.20;;;19.20;61.10;;;;;;5044477;28;20037;-69
2024/04/05 05:42:08;;;;;;;3.17;1.33;;;19.20;61.00;;;;;;5043597;28;20045;-70
2024/04/05 05:44:33;;;;;;;4.15;1.30;;;19.30;61.10;;;;;;5045669;28;20047;-69
2024/04/05 05:46:59;;;;;;;2.35;1.42;;;19.20;61.00;;;;;;5042333;28;20036;-68
2024/04/05 05:49:24;;;;;;;3.47;1.33;;;19.20;61.00;;;;;;5042480;28;20128;-68
2024/04/05 05:51:49;;;;;;;1.83;1.27;;;19.20;61.00;;;;;;5044779;28;20071;-67
2024/04/05 05:54:15;;;;;;;1.88;1.20;;;19.20;61.00;;;;;;5045046;28;20467;-69
2024/04/05 05:56:41;;;;;;;4.72;1.38;;;19.20;61.10;;;;;;5044756;28;20056;-68
2024/04/05 05:59:06;;;;;;;2.58;1.48;;;19.20;61.00;;;;;;5044647;28;20439;-69
2024/04/05 06:01:32;;;;;;;3.53;1.83;;;19.20;61.10;;;;;;5043925;28;20091;-68
2024/04/05 06:04:00;;;;;;;2.92;1.50;;;19.20;61.10;;;;;;5045217;28;20072;-69
2024/04/05 06:06:26;;;;;;;4.43;1.98;;;19.20;61.00;;;;;;5041922;28;20033;-69
2024/04/05 06:08:52;;;;;;;2.38;1.42;;;19.20;61.00;;;;;;5045886;28;20427;-69
2024/04/05 06:11:17;;;;;;;2.65;1.33;;;19.20;61.00;;;;;;5044803;28;20074;-67
2024/04/05 06:13:43;;;;;;;3.25;1.52;;;19.20;61.00;;;;;;5046810;28;20040;-67
2024/04/05 06:16:09;;;;;;;3.35;1.50;;;19.20;61.00;;;;;;5044815;28;20028;-68
2024/04/05 06:18:34;;;;;;;1.75;1.38;;;19.20;61.00;;;;;;5045562;28;20416;-67
2024/04/05 06:21:00;;;;;;;3.13;1.48;;;19.20;61.00;;;;;;5042816;28;20128;-68
2024/04/05 06:23:25;;;;;;;2.10;1.35;;;19.30;61.00;;;;;;5044160;28;20135;-67
2024/04/05 06:25:52;;;;;;;3.40;1.77;;;19.20;61.00;;;;;;5045249;28;20029;-69
2024/04/05 06:28:18;;;;;;;4.07;1.50;;;19.20;61.00;;;;;;5042845;28;20029;-69
2024/04/05 06:30:43;;;;;;;2.65;1.55;;;19.20;61.10;;;;;;5044298;28;20029;-67
2024/04/05 06:33:09;;;;;;;3.13;1.52;;;19.20;61.10;;;;;;5045034;28;20029;-68
2024/04/05 06:35:34;;;;;;;3.67;1.75;;;19.30;61.10;;;;;;5043218;28;20037;-66
2024/04/05 06:38:00;;;;;;;2.13;1.52;;;19.30;61.10;;;;;;5047773;28;20109;-68
2024/04/05 06:40:26;;;;;;;1.80;1.33;;;19.30;61.10;;;;;;5042085;28;20032;-66
2024/04/05 06:42:51;;;;;;;2.35;1.40;;;19.30;60.90;;;;;;5045836;28;20029;-68
2024/04/05 06:45:17;;;;;;;2.20;1.60;;;19.30;60.90;;;;;;5044692;28;20036;-67
2024/04/05 06:47:42;;;;;;;4.25;2.05;;;19.30;61.00;;;;;;5045382;28;20025;-67
2024/04/05 06:50:08;;;;;;;2.30;1.30;;;19.30;61.00;;;;;;5043339;28;20041;-69
2024/04/05 06:52:34;;;;;;;2.25;1.42;;;19.30;61.00;;;;;;5044806;28;20579;-68
2024/04/05 06:54:59;;;;;;;3.25;1.40;;;19.30;61.10;;;;;;5046920;28;20102;-68
2024/04/05 06:57:25;;;;;;;3.53;1.50;;;19.30;61.10;;;;;;5043217;28;20033;-68
2024/04/05 06:59:50;;;;;;;3.95;1.75;;;19.30;61.20;;;;;;5044811;28;20043;-68
2024/04/05 07:02:19;;;;;;;1.65;1.48;;;19.30;61.20;;;;;;5044775;28;20045;-68
2024/04/05 07:04:45;;;;;;;3.47;2.15;;;19.30;61.30;;;;;;5044136;28;20510;-68
2024/04/05 07:07:11;;;;;;;5.25;1.42;;;19.20;61.20;;;;;;5035369;28;20041;-67
2024/04/05 07:09:36;;;;;;;5.25;1.75;;;19.20;61.80;;;;;;5039013;28;20033;-68
2024/04/05 07:12:04;;;;;;;3.17;1.90;;;19.20;61.30;;;;;;5037605;28;20377;-68
2024/04/05 07:14:30;;;;;;;2.63;1.50;;;19.20;61.20;;;;;;5043356;28;20029;-67
2024/04/05 07:16:56;;;;;;;5.00;1.83;;;19.20;61.30;;;;;;5032237;28;20045;-69
2024/04/05 07:19:23;;;;;;;4.13;1.85;;;19.20;61.40;;;;;;5030716;28;20036;-67
2024/04/05 07:21:49;;;;;;;6.03;2.45;;;19.20;61.40;;;;;;5035792;28;20106;-68
2024/04/05 07:24:15;;;;;;;4.68;1.83;;;19.20;61.60;;;;;;5036505;28;20033;-67
2024/04/05 07:26:43;;;;;;;2.38;1.33;;;19.20;61.60;;;;;;5032715;28;20136;-64
2024/04/05 07:29:11;;;;;;;3.35;1.48;;;19.10;61.60;;;;;;5033437;28;20420;-67
2024/04/05 07:31:37;;;;;;;3.30;1.30;;;19.10;61.60;;;;;;5030423;28;20045;-67
2024/04/05 07:34:03;;;;;;;4.25;1.83;;;19.20;61.70;;;;;;5031658;28;20071;-69
2024/04/05 07:36:29;;;;;;;2.30;1.50;;;19.10;61.70;;;;;;5027920;28;20067;-68
2024/04/05 07:38:54;;;;;;;2.58;1.52;;;19.10;61.80;;;;;;5033769;28;20311;-69
2024/04/05 07:41:21;;;;;;;1.90;1.35;;;19.10;61.80;;;;;;5030312;28;20611;-68
2024/04/05 07:43:46;;;;;;;3.03;1.60;;;19.10;61.80;;;;;;5031777;28;20059;-68
2024/04/05 07:46:12;;;;;;;2.30;1.50;;;19.10;61.80;;;;;;5032615;28;20037;-67
2024/04/05 07:48:38;;;;;;;5.85;1.60;;;19.10;61.80;;;;;;5035273;28;20460;-70
2024/04/05 07:51:04;;;;;;;3.63;1.88;;;19.10;61.80;;;;;;5029882;28;20036;-65
2024/04/05 07:53:30;;;;;;;3.67;1.48;;;19.10;61.70;;;;;;5033199;28;20240;-68
2024/04/05 07:55:55;;;;;;;4.40;1.85;;;19.10;61.70;;;;;;5033809;28;20048;-66
2024/04/05 07:58:21;;;;;;;3.25;1.60;;;19.10;61.70;;;;;;5027726;28;20060;-68
2024/04/05 08:00:48;;;;;;;3.13;1.42;;;19.10;61.60;;;;;;5030288;28;20761;-68
2024/04/05 08:03:14;;;;;;;4.88;1.50;;;19.20;61.60;;;;;;5030854;28;20045;-69
2024/04/05 08:05:39;;;;;;;5.40;1.88;;;19.20;61.50;;;;;;5032358;28;20079;-68
2024/04/05 08:08:05;;;;;;;3.08;1.40;;;19.20;61.50;;;;;;5033896;28;20029;-69
2024/04/05 08:10:31;;;;;;;2.63;1.55;;;19.20;61.40;;;;;;5031428;28;20124;-69
2024/04/05 08:12:59;;;;;;;2.90;1.60;;;19.20;61.40;;;;;;5035538;28;20029;-66
2024/04/05 08:15:27;;;;;;;4.25;1.25;;;19.20;61.40;;;;;;5033418;28;20032;-69
2024/04/05 08:17:53;;;;;;;2.80;1.67;;;19.20;61.40;;;;;;5029635;28;20637;-68
2024/04/05 08:20:19;;;;;;;2.85;1.27;;;19.20;61.40;;;;;;5035001;28;20138;-68
2024/04/05 08:22:45;;;;;;;3.63;1.33;;;19.20;61.40;;;;;;5025290;28;20052;-68
2024/04/05 08:25:10;;;;;;;3.17;1.05;;;19.30;61.40;;;;;;5030664;28;20068;-64
2024/04/05 08:27:36;;;;;;;4.35;1.98;;;19.30;61.40;;;;;;5025333;28;20029;-66
2024/04/05 08:30:02;;;;;;;3.88;1.52;;;19.30;61.30;;;;;;5035317;28;20460;-69
2024/04/05 08:32:28;;;;;;;4.43;1.10;;;19.30;61.30;;;;;;5030853;28;20055;-68
2024/04/05 08:34:53;;;;;;;4.30;1.95;;;19.30;61.30;;;;;;5042040;28;20029;-68
2024/04/05 08:37:19;;;;;;;2.75;1.60;;;19.30;61.30;;;;;;5026849;28;20424;-68
2024/04/05 08:39:44;;;;;;;3.78;1.42;;;19.30;61.30;;;;;;5031751;28;20056;-68
2024/04/05 08:42:17;;;;;;;2.90;1.40;;;19.30;61.10;;;;;;5030544;28;20423;-67
2024/04/05 08:44:46;;;;;;;3.03;1.25;;;19.40;61.20;;;;;;5028594;28;20049;-69
2024/04/05 08:47:12;;;;;;;1.95;0.98;;;19.40;61.20;;;;;;5028214;28;20033;-68
2024/04/05 08:49:38;;;;;;;2.33;1.20;;;19.40;61.10;;;;;;5026863;28;20251;-65
2024/04/05 08:52:04;;;;;;;3.28;1.35;;;19.40;61.20;;;;;;5029382;28;20060;-68
2024/04/05 08:54:30;;;;;;;1.90;1.20;;;19.40;61.10;;;;;;5029505;28;20373;-68
2024/04/05 08:56:56;;;;;;;2.85;1.02;;;19.40;61.10;;;;;;5033103;28;20040;-70
2024/04/05 08:59:23;;;;;;;2.88;1.42;;;19.40;61.00;;;;;;5029907;28;20326;-69
2024/04/05 09:01:51;;;;;;;3.08;1.15;;;19.40;61.00;;;;;;5030801;28;20064;-68
2024/04/05 09:04:17;;;;;;;2.97;1.17;;;19.50;61.00;;;;;;5032677;28;20032;-68
2024/04/05 09:06:43;;;;;;;1.90;1.10;;;19.50;61.00;;;;;;5028582;28;20102;-66
2024/04/05 09:09:09;;;;;;;2.38;1.10;;;19.50;61.00;;;;;;5032515;28;20033;-68
2024/04/05 09:11:35;;;;;;;2.60;1.05;;;19.50;60.90;;;;;;5027130;28;20377;-68
2024/04/05 09:14:04;;;;;;;2.67;1.17;;;19.50;61.00;;;;;;5022124;28;20156;-67
2024/04/05 09:16:34;;;;;;;3.38;1.27;;;19.50;60.80;;;;;;5032397;28;20044;-68
2024/04/05 09:19:11;;;;;;;1.63;0.82;;;19.50;60.90;;;;;;5029898;28;20037;-69
2024/04/05 09:21:44;;;;;;;4.13;1.42;;;19.50;60.80;;;;;;5022181;28;20040;-66
2024/04/05 09:24:11;;;;;;;4.35;1.15;;;19.50;60.90;;;;;;5022698;28;20071;-67
2024/04/05 09:26:36;;;;;;;3.03;1.20;;;19.50;60.80;;;;;;5033478;28;20150;-67
2024/04/05 09:29:03;;;;;;;5.13;1.40;;;19.50;60.80;;;;;;5034932;28;20530;-68
2024/04/05 09:31:29;;;;;;;1.92;1.33;;;19.60;60.90;;;;;;5031467;28;20025;-68
2024/04/05 09:34:06;;;;;;;2.63;1.23;;;19.60;60.80;;;;;;5028027;28;20029;-66
2024/04/05 09:36:37;;;;;;;3.53;1.42;;;19.50;60.80;;;;;;5031943;28;20075;-67
2024/04/05 09:39:09;;;;;;;3.72;1.35;;;19.50;60.80;;;;;;5043325;28;20037;-67
2024/04/05 09:41:35;;;;;;;3.38;1.38;;;19.50;60.80;;;;;;5035738;28;20102;-64
2024/04/05 09:44:03;;;;;;;5.00;1.75;;;19.60;60.90;;;;;;5043753;28;20515;-68
2024/04/05 09:46:30;;;;;;;5.35;2.08;;;19.50;60.80;;;;;;5033414;28;20106;-67
2024/04/05 09:48:56;;;;;;;6.20;2.55;;;19.50;60.80;;;;;;5042841;28;20442;-68
2024/04/05 09:51:26;;;;;;;3.80;2.30;;;19.60;60.80;;;;;;5034815;28;20033;-67
2024/04/05 09:53:52;;;;;;;4.75;2.50;;;19.50;60.70;;;;;;5036581;28;20041;-68
2024/04/05 09:56:22;;;;;;;4.10;2.47;;;19.60;60.80;;;;;;5042598;28;20029;-67
2024/04/05 09:58:49;;;;;;;6.53;2.95;;;19.60;60.80;;;;;;5036011;28;20064;-68
2024/04/05 10:01:16;;;;;;;4.28;2.20;;;19.60;60.70;;;;;;5034062;28;20337;-64
2024/04/05 10:03:44;;;;;;;6.70;2.72;;;19.60;60.80;;;;;;5039416;28;20240;-67
2024/04/05 10:06:15;;;;;;;3.08;2.17;;;19.60;60.70;;;;;;5040271;28;20047;-64
2024/04/05 10:08:41;;;;;;;4.53;2.90;;;19.60;60.80;;;;;;5037404;28;20779;-67
2024/04/05 10:11:13;;;;;;;4.65;2.60;;;19.60;60.80;;;;;;5034668;28;20033;-64
2024/04/05 10:13:42;;;;;;;5.68;2.88;;;19.60;60.70;;;;;;5031852;28;20037;-64
2024/04/05 10:16:09;;;;;;;4.88;2.50;;;19.60;60.70;;;;;;5036927;28;20047;-67
2024/04/05 10:18:39;;;;;;;5.80;2.75;;;19.60;60.70;;;;;;5042462;28;20068;-67
2024/04/05 10:21:10;;;;;;;4.97;3.05;;;19.60;60.70;;;;;;5032131;28;20030;-68
2024/04/05 10:23:38;;;;;;;4.82;2.75;;;19.60;60.70;;;;;;5040201;28;20037;-68
2024/04/05 10:26:10;;;;;;;5.45;2.30;;;19.60;60.70;;;;;;5026404;28;20032;-65
2024/04/05 10:28:37;;;;;;;6.10;2.92;;;19.60;60.70;;;;;;5058565;28;20122;-67
2024/04/05 10:31:02;;;;;;;3.92;2.70;;;19.70;61.50;;;;;;5039898;28;20326;-68
2024/04/05 10:33:29;;;;;;;5.28;2.88;;;19.70;60.80;;;;;;5043457;28;20472;-68
2024/04/05 10:35:59;;;;;;;4.55;2.40;;;19.60;60.70;;;;;;5040912;28;20033;-64
2024/04/05 10:38:27;;;;;;;5.88;2.60;;;19.70;60.70;;;;;;5049656;28;20042;-67
2024/04/05 10:41:04;;;;;;;5.30;2.63;;;19.70;60.70;;;;;;5042501;28;20037;-67
2024/04/05 10:43:30;;;;;;;5.32;2.50;;;19.70;60.70;;;;;;5027842;28;20407;-67
2024/04/05 10:45:58;;;;;;;5.65;2.47;;;19.70;60.80;;;;;;5035881;28;20120;-67
2024/04/05 10:48:24;;;;;;;4.75;2.50;;;19.70;60.80;;;;;;5040617;28;20037;-66
2024/04/05 10:50:53;;;;;;;5.00;2.63;;;19.70;60.70;;;;;;5035299;28;20041;-67
2024/04/05 10:53:20;;;;;;;3.30;2.22;;;19.70;60.70;;;;;;5036132;28;20036;-66
2024/04/05 10:55:46;;;;;;;4.65;2.22;;;19.70;60.70;;;;;;5039289;28;20496;-67
2024/04/05 10:58:12;;;;;;;4.65;2.35;;;19.70;60.70;;;;;;5033964;28;20041;-68
2024/04/05 11:00:38;;;;;;;3.47;2.13;;;19.70;60.70;;;;;;5036212;28;20021;-65
2024/04/05 11:03:09;;;;;;;3.88;1.90;;;19.70;60.70;;;;;;5025611;28;20083;-68
2024/04/05 11:05:35;;;;;;;4.85;2.40;;;19.70;60.80;;;;;;5032540;28;20044;-68
2024/04/05 11:08:03;;;;;;;4.85;2.20;;;19.70;60.70;;;;;;5030897;28;20036;-68
2024/04/05 11:10:33;;;;;;;5.38;2.15;;;19.70;60.60;;;;;;5030026;28;20029;-67
2024/04/05 11:12:59;;;;;;;5.22;2.13;;;19.70;60.60;;;;;;5035055;28;20163;-66
2024/04/05 11:15:25;;;;;;;3.83;2.25;;;19.70;60.60;;;;;;5033566;28;20408;-67
2024/04/05 11:18:05;;;;;;;4.97;2.10;;;19.70;60.60;;;;;;5033524;28;20050;-68
2024/04/05 11:20:32;;;;;;;6.15;2.08;;;19.70;60.70;;;;;;5030609;28;20120;-67
2024/04/05 11:23:02;;;;;;;4.35;2.13;;;19.70;60.60;;;;;;5034403;28;20033;-67
2024/04/05 11:25:34;;;;;;;4.18;2.20;;;19.70;60.70;;;;;;5032410;28;20025;-68
2024/04/05 11:28:14;;;;;;;4.30;2.50;;;19.70;60.70;;;;;;5033481;28;20096;-68
2024/04/05 11:30:43;;;;;;;6.45;2.50;;;19.70;60.70;;;;;;5027125;28;20044;-68
2024/04/05 11:33:08;;;;;;;3.25;2.13;;;19.70;60.80;;;;;;5031599;28;20042;-65
2024/04/05 11:35:34;;;;;;;3.15;1.92;;;19.60;60.80;;;;;;5029086;28;20573;-67
2024/04/05 11:38:00;;;;;;;3.05;1.65;;;19.60;60.90;;;;;;5035861;28;20053;-64
2024/04/05 11:40:26;;;;;;;4.18;2.10;;;19.60;60.90;;;;;;5031837;28;20561;-64
2024/04/05 11:42:51;;;;;;;2.70;1.60;;;19.60;61.00;;;;;;5031547;28;20365;-66
2024/04/05 11:45:18;;;;;;;3.15;1.75;;;19.60;61.10;;;;;;5034455;28;20037;-67
2024/04/05 11:47:46;;;;;;;5.00;2.50;;;19.50;61.10;;;;;;5031585;28;20033;-68
2024/04/05 11:50:13;;;;;;;4.28;1.80;;;19.60;61.10;;;;;;5028510;28;20123;-68
2024/04/05 11:52:39;;;;;;;4.05;1.90;;;19.60;61.10;;;;;;5030892;28;20124;-63
2024/04/05 11:55:05;;;;;;;4.78;1.77;;;19.50;61.10;;;;;;5026841;28;20037;-67
2024/04/05 11:57:31;;;;;;;2.80;1.75;;;19.60;61.10;;;;;;5033771;28;20075;-67
2024/04/05 11:59:57;;;;;;;4.97;2.42;;;19.60;61.10;;;;;;5027031;28;20041;-67
2024/04/05 12:02:23;;;;;;;3.53;1.65;;;19.60;61.10;;;;;;5029301;28;20498;-68
2024/04/05 12:04:49;;;;;;;4.28;2.15;;;19.60;61.10;;;;;;5048421;28;20568;-66
2024/04/05 12:07:15;;;;;;;2.83;1.55;;;19.60;60.90;;;;;;5032030;28;20136;-68
2024/04/05 12:09:40;;;;;;;3.55;1.48;;;19.60;60.90;;;;;;5030273;28;20633;-68
2024/04/05 12:12:06;;;;;;;3.72;2.00;;;19.60;60.90;;;;;;5033840;28;20040;-69
2024/04/05 12:14:35;;;;;;;2.95;1.48;;;19.60;60.90;;;;;;5024600;28;20045;-69
2024/04/05 12:17:02;;;;;;;3.60;1.63;;;19.70;60.90;;;;;;5034305;28;20377;-64
2024/04/05 12:19:27;;;;;;;4.13;1.60;;;19.60;60.90;;;;;;5030520;28;20040;-68
2024/04/05 12:21:53;;;;;;;3.70;1.70;;;19.60;60.80;;;;;;5031213;28;20246;-66
2024/04/05 12:24:19;;;;;;;2.88;1.50;;;19.70;61.00;;;;;;5031620;28;20032;-65
2024/04/05 12:26:44;;;;;;;5.65;1.40;;;19.60;60.80;;;;;;5026859;28;20369;-70
2024/04/05 12:29:10;;;;;;;4.80;1.52;;;19.60;60.90;;;;;;5032928;28;20033;-70
2024/04/05 12:31:35;;;;;;;5.90;1.88;;;19.70;60.90;;;;;;5025511;28;20063;-69
2024/04/05 12:34:01;;;;;;;2.85;1.60;;;19.70;60.90;;;;;;5051395;28;20112;-70
2024/04/05 12:36:26;;;;;;;3.08;1.20;;;19.60;60.90;;;;;;5036472;28;20100;-68
2024/04/05 12:38:58;;;;;;;2.03;1.45;;;19.70;60.90;;;;;;5027623;28;20064;-68
2024/04/05 12:41:26;;;;;;;3.90;1.80;;;19.70;60.90;;;;;;5040432;28;20021;-69
2024/04/05 12:43:52;;;;;;;3.13;1.48;;;19.80;60.90;;;;;;5028131;28;20033;-66